Time;durP1;ratioP1;P1;durP2;ratioP2;P2;SDS_P1;SDS_P2;PMS_P1;PMS_P2;Temp;Humidity;BMP_temperature;BMP_pressure;BME280_temperature;BME280_humidity;BME280_pressure;Samples;Min_cycle;Max_cycle;Signal;HPM_P1;HPM_P2
2023/06/08 00:00:17;;;;;;;4.57;2.75;;;21.00;96.70;;;;;;4980407;28;20046;-69
2023/06/08 00:02:46;;;;;;;4.05;3.03;;;21.00;96.70;;;;;;4979914;28;20042;-69
2023/06/08 00:05:16;;;;;;;3.95;2.90;;;21.00;96.70;;;;;;4963351;28;20077;-69
2023/06/08 00:07:45;;;;;;;3.70;2.60;;;21.10;96.70;;;;;;4982311;28;20034;-69
2023/06/08 00:10:15;;;;;;;3.92;3.40;;;21.00;96.70;;;;;;4980227;28;20181;-69
2023/06/08 00:12:42;;;;;;;3.17;2.72;;;21.00;96.70;;;;;;4963973;28;20514;-69
2023/06/08 00:15:13;;;;;;;3.95;2.88;;;21.00;96.70;;;;;;4980314;28;20034;-69
2023/06/08 00:17:43;;;;;;;5.38;3.28;;;20.90;96.70;;;;;;4979834;28;20054;-69
2023/06/08 00:20:13;;;;;;;5.53;3.03;;;20.90;96.70;;;;;;4979294;28;20447;-69
2023/06/08 00:22:42;;;;;;;4.43;2.60;;;20.80;96.70;;;;;;4978529;28;20065;-69
2023/06/08 00:25:10;;;;;;;4.13;3.08;;;20.70;96.70;;;;;;4978308;28;20050;-69
2023/06/08 00:27:40;;;;;;;6.30;3.03;;;20.70;96.70;;;;;;4979074;28;20053;-69
2023/06/08 00:30:09;;;;;;;3.10;2.40;;;20.50;96.70;;;;;;4977136;28;20157;-69
2023/06/08 00:32:37;;;;;;;2.70;2.50;;;20.50;96.70;;;;;;4979000;28;20093;-70
2023/06/08 00:35:07;;;;;;;3.90;2.63;;;20.50;96.70;;;;;;4980606;28;20563;-69
2023/06/08 00:37:37;;;;;;;3.42;2.60;;;20.50;96.70;;;;;;4979310;28;20049;-70
2023/06/08 00:40:07;;;;;;;4.03;3.10;;;20.60;96.70;;;;;;4960258;28;20459;-69
2023/06/08 00:42:35;;;;;;;3.58;2.75;;;20.60;96.70;;;;;;4979700;28;20408;-69
2023/06/08 00:45:05;;;;;;;3.70;2.65;;;20.50;96.70;;;;;;4981226;28;20042;-69
2023/06/08 00:47:35;;;;;;;3.30;3.00;;;20.60;96.70;;;;;;4980557;28;20042;-69
2023/06/08 00:50:04;;;;;;;4.38;3.03;;;20.60;96.70;;;;;;4978395;28;20044;-69
2023/06/08 00:52:37;;;;;;;3.67;3.03;;;20.60;96.70;;;;;;4979124;28;20046;-69
2023/06/08 00:55:06;;;;;;;3.08;2.83;;;20.60;96.70;;;;;;4979554;28;20043;-69
2023/06/08 00:57:36;;;;;;;3.38;3.08;;;20.60;96.70;;;;;;4977755;28;20133;-69
2023/06/08 01:00:11;;;;;;;5.80;3.30;;;20.50;96.70;;;;;;4980051;28;20621;-70
2023/06/08 01:02:41;;;;;;;7.28;3.45;;;20.40;96.70;;;;;;4978560;28;20046;-69
2023/06/08 01:05:09;;;;;;;3.42;3.13;;;20.40;96.70;;;;;;4977236;28;20038;-69
2023/06/08 01:07:48;;;;;;;7.55;3.58;;;20.40;96.70;;;;;;4978627;28;20076;-69
2023/06/08 01:10:25;;;;;;;3.03;2.75;;;20.30;96.70;;;;;;4979701;28;20054;-70
2023/06/08 01:13:04;;;;;;;4.82;3.22;;;20.30;96.70;;;;;;4963118;28;20055;-69
2023/06/08 01:15:37;;;;;;;3.25;2.95;;;20.30;96.70;;;;;;4977502;28;20077;-69
2023/06/08 01:18:07;;;;;;;3.20;2.90;;;20.20;96.70;;;;;;4975374;28;20101;-69
2023/06/08 01:20:48;;;;;;;6.43;3.33;;;20.20;96.70;;;;;;4978358;28;20047;-69
2023/06/08 01:23:34;;;;;;;6.15;3.45;;;20.20;96.70;;;;;;4977454;28;20039;-70
2023/06/08 01:26:05;;;;;;;5.25;3.63;;;20.20;96.70;;;;;;4979859;28;20038;-69
2023/06/08 01:28:34;;;;;;;6.00;2.95;;;20.20;96.70;;;;;;4961572;28;20054;-69
2023/06/08 01:31:03;;;;;;;4.70;3.03;;;20.10;96.70;;;;;;4980363;28;20046;-69
2023/06/08 01:33:31;;;;;;;4.57;3.08;;;20.00;96.70;;;;;;4962031;28;20971;-69
2023/06/08 01:36:06;;;;;;;4.57;2.97;;;20.00;96.70;;;;;;4982287;28;20074;-69
2023/06/08 01:38:46;;;;;;;6.00;2.88;;;19.90;96.70;;;;;;4983093;28;20484;-69
2023/06/08 01:41:21;;;;;;;2.83;2.60;;;19.90;96.70;;;;;;4981655;28;20692;-69
2023/06/08 01:43:51;;;;;;;5.05;2.83;;;19.80;96.70;;;;;;4982027;28;20051;-69
2023/06/08 01:46:21;;;;;;;5.25;3.42;;;19.80;96.70;;;;;;4982584;28;20046;-69
2023/06/08 01:48:52;;;;;;;3.92;2.80;;;19.80;96.70;;;;;;4981461;28;20054;-69
2023/06/08 01:51:20;;;;;;;4.53;3.00;;;19.80;96.70;;;;;;4979982;28;20512;-69
2023/06/08 01:53:48;;;;;;;5.07;2.80;;;19.80;96.70;;;;;;4982137;28;20615;-69
2023/06/08 01:56:17;;;;;;;5.03;3.42;;;19.90;96.70;;;;;;4980184;28;20058;-69
2023/06/08 01:58:45;;;;;;;4.60;3.17;;;19.90;96.70;;;;;;4981420;28;20113;-69
2023/06/08 02:01:13;;;;;;;3.38;2.78;;;19.80;96.70;;;;;;4982424;28;22005;-70
2023/06/08 02:03:41;;;;;;;5.43;3.03;;;19.80;96.70;;;;;;4982743;28;20049;-69
2023/06/08 02:06:09;;;;;;;3.55;3.08;;;19.80;96.70;;;;;;4976996;28;20041;-69
2023/06/08 02:08:41;;;;;;;4.70;2.90;;;19.70;96.70;;;;;;4977633;28;20416;-69
2023/06/08 02:11:10;;;;;;;5.90;2.80;;;19.70;96.70;;;;;;4964983;28;20357;-69
2023/06/08 02:13:41;;;;;;;5.75;3.80;;;19.70;96.70;;;;;;4980948;28;21481;-69
2023/06/08 02:16:09;;;;;;;6.55;3.05;;;19.70;96.70;;;;;;4981308;28;20050;-69
2023/06/08 02:18:41;;;;;;;6.68;2.95;;;19.70;96.70;;;;;;4982595;28;20084;-69
2023/06/08 02:21:10;;;;;;;5.32;3.00;;;19.70;96.70;;;;;;4963956;28;20050;-69
2023/06/08 02:23:38;;;;;;;5.03;3.15;;;19.70;96.70;;;;;;4983611;28;20101;-69
2023/06/08 02:26:22;;;;;;;3.50;3.20;;;19.60;96.70;;;;;;4982018;28;20800;-69
2023/06/08 02:28:51;;;;;;;7.15;3.22;;;19.60;96.70;;;;;;4981331;28;20506;-70
2023/06/08 02:31:19;;;;;;;4.88;3.20;;;19.50;96.70;;;;;;4979366;28;20131;-69
2023/06/08 02:33:47;;;;;;;5.93;3.00;;;19.50;96.70;;;;;;4980928;28;20050;-69
2023/06/08 02:36:17;;;;;;;5.10;3.80;;;19.60;96.70;;;;;;4979979;28;20042;-69
2023/06/08 02:38:45;;;;;;;4.72;3.30;;;19.60;96.70;;;;;;4964205;28;20981;-69
2023/06/08 02:41:13;;;;;;;6.32;3.50;;;19.40;96.70;;;;;;4980555;28;20133;-69
2023/06/08 02:43:42;;;;;;;4.07;3.20;;;19.30;96.70;;;;;;4978839;28;20101;-69
2023/06/08 02:46:12;;;;;;;4.30;3.22;;;19.20;96.70;;;;;;4978663;28;20052;-69
2023/06/08 02:48:40;;;;;;;4.20;3.10;;;19.10;96.70;;;;;;4979474;28;20065;-69
2023/06/08 02:51:08;;;;;;;3.58;2.97;;;19.00;96.70;;;;;;4963794;28;20042;-69
2023/06/08 02:53:37;;;;;;;6.10;3.60;;;19.00;96.70;;;;;;4963810;28;20595;-70
2023/06/08 02:56:05;;;;;;;4.47;3.80;;;18.90;96.70;;;;;;4980445;28;20774;-69
2023/06/08 02:58:33;;;;;;;7.22;2.85;;;18.90;96.70;;;;;;4962786;28;20049;-69
2023/06/08 03:01:02;;;;;;;6.45;3.47;;;18.90;96.70;;;;;;4977645;28;20775;-69
2023/06/08 03:03:54;;;;;;;6.93;3.58;;;18.90;96.70;;;;;;4979547;28;20217;-69
2023/06/08 03:06:33;;;;;;;4.95;3.40;;;18.90;96.70;;;;;;4979965;28;20126;-69
2023/06/08 03:09:09;;;;;;;5.10;2.67;;;18.90;96.70;;;;;;4979541;28;20074;-69
2023/06/08 03:11:41;;;;;;;4.63;3.05;;;19.00;96.70;;;;;;4977992;28;20338;-70
2023/06/08 03:14:11;;;;;;;5.68;3.50;;;19.00;96.70;;;;;;4979760;28;20050;-69
2023/06/08 03:16:41;;;;;;;4.57;3.28;;;19.10;96.70;;;;;;4980703;28;20436;-69
2023/06/08 03:19:11;;;;;;;5.85;3.22;;;19.00;96.70;;;;;;4979316;28;20140;-69
2023/06/08 03:21:41;;;;;;;6.03;3.28;;;19.00;96.70;;;;;;4981526;28;20038;-69
2023/06/08 03:24:11;;;;;;;5.55;3.03;;;19.10;96.70;;;;;;4979825;28;20050;-69
2023/06/08 03:26:40;;;;;;;5.93;3.40;;;19.10;96.70;;;;;;4980867;28;20065;-69
2023/06/08 03:29:09;;;;;;;4.57;3.05;;;19.10;96.70;;;;;;4979819;28;20531;-69
2023/06/08 03:31:40;;;;;;;5.28;3.33;;;19.10;96.70;;;;;;4978563;28;20047;-69
2023/06/08 03:34:16;;;;;;;4.78;2.85;;;19.00;96.70;;;;;;4978290;28;20172;-70
2023/06/08 03:36:46;;;;;;;5.43;3.28;;;19.10;96.70;;;;;;4977991;28;20047;-69
2023/06/08 03:39:19;;;;;;;5.82;3.35;;;19.10;96.70;;;;;;4963941;28;20070;-69
2023/06/08 03:41:47;;;;;;;5.00;3.30;;;19.10;96.70;;;;;;4979084;28;20050;-69
2023/06/08 03:44:16;;;;;;;6.60;2.65;;;19.20;96.70;;;;;;4977143;28;20046;-69
2023/06/08 03:46:45;;;;;;;4.85;3.15;;;19.20;96.70;;;;;;4979238;28;20112;-69
2023/06/08 03:49:15;;;;;;;5.22;3.08;;;19.10;96.70;;;;;;4979360;28;20096;-69
2023/06/08 03:51:45;;;;;;;5.13;2.88;;;19.10;96.70;;;;;;4980135;28;20740;-69
2023/06/08 03:54:12;;;;;;;6.72;3.10;;;19.10;96.70;;;;;;4978465;28;20045;-69
2023/06/08 03:56:41;;;;;;;4.70;3.13;;;19.00;96.70;;;;;;4960871;28;20637;-69
2023/06/08 03:59:10;;;;;;;5.53;2.97;;;19.10;96.70;;;;;;4978882;28;20097;-69
2023/06/08 04:01:41;;;;;;;5.47;2.47;;;19.10;96.70;;;;;;4980179;28;20058;-68
2023/06/08 04:04:12;;;;;;;4.15;2.75;;;19.10;96.70;;;;;;4979970;28;20054;-69
2023/06/08 04:06:41;;;;;;;6.95;3.28;;;19.20;96.70;;;;;;4979230;28;21886;-69
2023/06/08 04:09:11;;;;;;;3.72;2.67;;;19.20;96.70;;;;;;4978201;28;20050;-69
2023/06/08 04:11:39;;;;;;;5.50;2.97;;;19.10;96.70;;;;;;4977685;28;20042;-69
2023/06/08 04:14:07;;;;;;;5.47;3.00;;;19.10;96.70;;;;;;4962488;28;20038;-69
2023/06/08 04:16:36;;;;;;;4.35;2.80;;;19.10;96.70;;;;;;4979850;28;20054;-69
2023/06/08 04:19:14;;;;;;;4.22;3.00;;;19.10;96.70;;;;;;4963329;28;20459;-69
2023/06/08 04:21:43;;;;;;;5.72;2.88;;;19.10;96.70;;;;;;4979725;28;20517;-69
2023/06/08 04:24:17;;;;;;;3.28;2.83;;;19.20;96.70;;;;;;4979216;28;20162;-70
2023/06/08 04:26:45;;;;;;;6.07;2.67;;;19.10;96.70;;;;;;4979242;28;20054;-69
2023/06/08 04:29:14;;;;;;;4.53;2.70;;;19.20;96.70;;;;;;4977177;28;20128;-68
2023/06/08 04:31:43;;;;;;;8.07;2.63;;;19.20;96.70;;;;;;4977932;28;20044;-68
2023/06/08 04:34:11;;;;;;;4.55;2.85;;;19.30;96.70;;;;;;4965961;28;20054;-68
2023/06/08 04:36:42;;;;;;;5.50;2.78;;;19.30;96.70;;;;;;4976742;28;20551;-68
2023/06/08 04:39:13;;;;;;;4.18;2.33;;;19.30;96.70;;;;;;4977289;28;20528;-68
2023/06/08 04:41:41;;;;;;;6.35;3.25;;;19.30;96.70;;;;;;4979048;28;20515;-68
2023/06/08 04:44:10;;;;;;;3.50;2.75;;;19.20;96.70;;;;;;4977592;28;20595;-69
2023/06/08 04:46:38;;;;;;;6.65;2.70;;;19.20;96.70;;;;;;4978822;28;20500;-68
2023/06/08 04:49:08;;;;;;;6.43;3.10;;;19.10;96.70;;;;;;4978022;28;20057;-68
2023/06/08 04:51:39;;;;;;;3.55;2.60;;;19.00;96.70;;;;;;4979142;28;20046;-68
2023/06/08 04:54:13;;;;;;;4.22;2.85;;;19.00;96.70;;;;;;4962747;28;20504;-68
2023/06/08 04:56:42;;;;;;;6.63;3.47;;;19.00;96.70;;;;;;4947496;28;20050;-68
2023/06/08 04:59:11;;;;;;;5.00;3.17;;;19.00;96.70;;;;;;4976937;28;20038;-68
2023/06/08 05:01:38;;;;;;;4.55;3.35;;;19.10;96.70;;;;;;4962039;28;20296;-69
2023/06/08 05:04:07;;;;;;;5.25;3.53;;;19.20;96.70;;;;;;4979073;28;20045;-68
2023/06/08 05:06:35;;;;;;;4.68;3.38;;;19.20;96.70;;;;;;4981014;28;20038;-68
2023/06/08 05:09:04;;;;;;;3.53;2.78;;;19.30;96.70;;;;;;4980834;28;20069;-68
2023/06/08 05:11:32;;;;;;;4.63;3.10;;;19.30;96.70;;;;;;4980065;28;20034;-68
2023/06/08 05:14:01;;;;;;;7.38;3.85;;;19.40;96.70;;;;;;4981172;28;20054;-68
2023/06/08 05:16:29;;;;;;;4.10;3.30;;;19.50;96.70;;;;;;4982754;28;20500;-68
2023/06/08 05:18:57;;;;;;;5.70;3.58;;;19.60;96.70;;;;;;4982156;28;20046;-68
2023/06/08 05:21:25;;;;;;;5.95;3.42;;;19.60;96.70;;;;;;4965786;28;20464;-68
2023/06/08 05:23:53;;;;;;;4.10;3.20;;;19.60;96.70;;;;;;4983402;28;20038;-68
2023/06/08 05:26:21;;;;;;;3.30;3.00;;;19.60;96.70;;;;;;4978086;28;20123;-68
2023/06/08 05:28:50;;;;;;;5.50;3.70;;;19.70;96.70;;;;;;4979778;28;20141;-68
2023/06/08 05:31:20;;;;;;;7.68;3.75;;;19.70;96.70;;;;;;4983831;28;20039;-69
2023/06/08 05:33:48;;;;;;;5.65;3.58;;;19.80;96.70;;;;;;4983368;28;20182;-68
2023/06/08 05:36:16;;;;;;;3.70;3.33;;;19.80;96.70;;;;;;4985189;28;20065;-68
2023/06/08 05:38:44;;;;;;;3.95;3.55;;;19.90;96.70;;;;;;4985823;28;20109;-69
2023/06/08 05:41:24;;;;;;;6.10;3.63;;;19.90;96.70;;;;;;4984049;28;20049;-68
2023/06/08 05:43:53;;;;;;;10.88;4.43;;;20.00;96.70;;;;;;4985245;28;20070;-71
2023/06/08 05:46:22;;;;;;;6.38;3.67;;;19.90;96.70;;;;;;4984148;28;20120;-69
2023/06/08 05:48:50;;;;;;;7.97;4.32;;;19.90;96.70;;;;;;4985157;28;20050;-69
2023/06/08 05:51:18;;;;;;;4.28;3.88;;;20.00;96.70;;;;;;4965175;28;20393;-69
2023/06/08 05:53:46;;;;;;;6.13;3.90;;;20.00;96.70;;;;;;4984942;28;20057;-69
2023/06/08 05:56:14;;;;;;;4.82;3.97;;;20.00;96.70;;;;;;4984159;28;20157;-69
2023/06/08 05:58:41;;;;;;;8.10;4.25;;;20.10;96.70;;;;;;4984770;28;20403;-69
2023/06/08 06:01:15;;;;;;;7.53;4.38;;;20.20;96.70;;;;;;4985795;28;20129;-69
2023/06/08 06:03:44;;;;;;;5.80;3.90;;;20.40;96.70;;;;;;4984382;28;20125;-69
2023/06/08 06:06:12;;;;;;;6.18;3.67;;;20.50;96.70;;;;;;4979498;28;20562;-70
2023/06/08 06:08:40;;;;;;;7.40;4.30;;;20.50;96.70;;;;;;4985479;28;20042;-71
2023/06/08 06:11:11;;;;;;;5.78;4.20;;;20.60;96.70;;;;;;4984519;28;20046;-68
2023/06/08 06:13:39;;;;;;;7.38;4.45;;;20.70;96.70;;;;;;4984723;28;20057;-68
2023/06/08 06:16:07;;;;;;;6.93;3.92;;;20.70;96.70;;;;;;4984666;28;20432;-67
2023/06/08 06:18:35;;;;;;;5.57;4.15;;;20.90;96.70;;;;;;4984362;28;20050;-68
2023/06/08 06:21:05;;;;;;;7.28;4.47;;;21.10;96.70;;;;;;4983919;28;20057;-67
2023/06/08 06:23:33;;;;;;;8.07;4.40;;;21.10;96.70;;;;;;4989326;28;20047;-67
2023/06/08 06:26:02;;;;;;;6.35;4.18;;;21.30;96.70;;;;;;4982757;28;20038;-67
2023/06/08 06:28:30;;;;;;;4.82;4.10;;;21.40;96.70;;;;;;4982090;28;20512;-67
2023/06/08 06:30:58;;;;;;;9.52;4.97;;;21.60;96.70;;;;;;4965080;28;20519;-67
2023/06/08 06:33:27;;;;;;;5.55;4.80;;;21.70;96.70;;;;;;4982343;28;20071;-67
2023/06/08 06:35:55;;;;;;;5.82;4.90;;;21.80;96.70;;;;;;4985259;28;20046;-68
2023/06/08 06:38:25;;;;;;;5.95;4.93;;;21.80;96.70;;;;;;4985437;28;20050;-68
2023/06/08 06:40:53;;;;;;;7.47;5.75;;;21.90;96.70;;;;;;4985551;28;20049;-67
2023/06/08 06:43:21;;;;;;;10.75;5.55;;;22.00;96.70;;;;;;4984241;28;20073;-68
2023/06/08 06:46:03;;;;;;;5.68;4.78;;;22.00;96.70;;;;;;4978116;28;20520;-67
2023/06/08 06:48:32;;;;;;;7.43;4.85;;;21.90;96.70;;;;;;4984907;28;20050;-67
2023/06/08 06:51:00;;;;;;;6.75;5.38;;;21.90;96.70;;;;;;4984550;28;20042;-68
2023/06/08 06:53:30;;;;;;;7.70;5.18;;;21.80;96.70;;;;;;4985193;28;20129;-67
2023/06/08 06:55:59;;;;;;;5.90;4.63;;;21.80;96.70;;;;;;4984596;28;20141;-67
2023/06/08 06:58:27;;;;;;;4.72;4.20;;;22.00;96.70;;;;;;4983625;28;20043;-67
2023/06/08 07:00:55;;;;;;;7.07;4.50;;;22.00;96.70;;;;;;4983476;28;20047;-67
2023/06/08 07:03:26;;;;;;;5.22;4.50;;;22.00;96.70;;;;;;4980364;28;20046;-68
2023/06/08 07:05:58;;;;;;;5.95;4.05;;;22.10;96.70;;;;;;4982203;28;20153;-68
2023/06/08 07:08:34;;;;;;;5.65;3.92;;;22.10;96.70;;;;;;4984320;28;20803;-67
2023/06/08 07:11:03;;;;;;;6.00;4.65;;;22.10;96.70;;;;;;4983564;28;20515;-68
2023/06/08 07:13:31;;;;;;;4.95;3.67;;;22.20;96.70;;;;;;4980195;28;20650;-67
2023/06/08 07:16:00;;;;;;;5.25;3.65;;;22.10;96.70;;;;;;4977987;28;20046;-68
2023/06/08 07:18:28;;;;;;;6.80;4.47;;;22.20;96.70;;;;;;4984514;28;20586;-68
2023/06/08 07:20:56;;;;;;;4.82;3.92;;;22.30;96.70;;;;;;4983939;28;20057;-67
2023/06/08 07:23:25;;;;;;;4.65;4.18;;;22.40;96.70;;;;;;4982843;28;20059;-69
2023/06/08 07:26:15;;;;;;;5.90;4.10;;;22.40;96.70;;;;;;4984288;28;20061;-70
2023/06/08 07:28:57;;;;;;;4.22;3.63;;;22.50;96.70;;;;;;4983997;28;20408;-68
2023/06/08 07:31:27;;;;;;;4.93;4.15;;;22.50;96.70;;;;;;4982774;28;20605;-67
2023/06/08 07:33:56;;;;;;;6.65;4.47;;;22.50;96.70;;;;;;4982412;28;20050;-67
2023/06/08 07:36:24;;;;;;;4.90;4.40;;;22.50;96.70;;;;;;4984345;28;20042;-67
2023/06/08 07:38:52;;;;;;;7.53;4.50;;;22.40;96.70;;;;;;4984173;28;20141;-68
2023/06/08 07:41:21;;;;;;;4.43;3.97;;;22.30;96.70;;;;;;4983834;28;20542;-69
2023/06/08 07:43:49;;;;;;;5.40;4.38;;;22.40;96.70;;;;;;4982337;28;20188;-69
2023/06/08 07:46:17;;;;;;;5.97;4.70;;;22.50;96.70;;;;;;4979518;28;20051;-67
2023/06/08 07:48:45;;;;;;;6.07;4.50;;;22.50;96.70;;;;;;4979311;28;20101;-67
2023/06/08 07:51:14;;;;;;;8.13;4.50;;;22.60;96.70;;;;;;4981971;28;20050;-67
2023/06/08 07:53:42;;;;;;;5.28;4.78;;;22.50;96.70;;;;;;4982129;28;20136;-67
2023/06/08 07:56:12;;;;;;;5.82;4.78;;;22.60;96.70;;;;;;4972605;28;20544;-67
2023/06/08 07:58:41;;;;;;;5.72;4.80;;;22.50;96.70;;;;;;4983109;28;20093;-68
2023/06/08 08:01:09;;;;;;;7.57;4.68;;;22.60;96.70;;;;;;4982939;28;20074;-69
2023/06/08 08:03:38;;;;;;;5.85;4.28;;;22.80;96.70;;;;;;4983896;28;20061;-67
2023/06/08 08:06:07;;;;;;;5.85;4.45;;;22.90;96.70;;;;;;4982701;28;20774;-68
2023/06/08 08:08:36;;;;;;;7.65;5.25;;;23.00;96.70;;;;;;4982282;28;20035;-68
2023/06/08 08:11:04;;;;;;;7.50;5.13;;;23.00;96.70;;;;;;4965475;28;20062;-69
2023/06/08 08:13:33;;;;;;;7.72;5.32;;;23.00;96.70;;;;;;4965439;28;20377;-69
2023/06/08 08:16:04;;;;;;;8.82;6.20;;;23.00;96.70;;;;;;4978212;28;20141;-68
2023/06/08 08:18:32;;;;;;;8.65;7.10;;;23.10;96.70;;;;;;4983630;28;20062;-68
2023/06/08 08:21:01;;;;;;;9.55;7.80;;;23.00;96.70;;;;;;4988066;28;20101;-68
2023/06/08 08:23:29;;;;;;;9.05;6.70;;;23.10;96.70;;;;;;4983028;28;20074;-69
2023/06/08 08:25:57;;;;;;;6.78;6.07;;;23.10;96.70;;;;;;4983364;28;20501;-69
2023/06/08 08:28:25;;;;;;;8.07;6.20;;;23.10;96.70;;;;;;4983643;28;20093;-68
2023/06/08 08:30:54;;;;;;;10.65;5.72;;;23.30;96.70;;;;;;4978889;28;20078;-68
2023/06/08 08:33:26;;;;;;;8.63;6.70;;;23.40;96.70;;;;;;4977752;28;20042;-68
2023/06/08 08:35:54;;;;;;;11.00;6.13;;;23.60;96.70;;;;;;4975417;28;20053;-68
2023/06/08 08:38:22;;;;;;;9.52;7.50;;;23.80;96.70;;;;;;4982331;28;20485;-67
2023/06/08 08:40:52;;;;;;;9.18;7.03;;;23.80;96.70;;;;;;4978730;28;20055;-67
2023/06/08 08:43:30;;;;;;;8.18;6.70;;;23.80;96.70;;;;;;4979994;28;20070;-68
2023/06/08 08:46:01;;;;;;;8.05;6.30;;;23.80;96.70;;;;;;4982191;28;20069;-68
2023/06/08 08:48:32;;;;;;;10.00;5.78;;;23.80;96.70;;;;;;4981804;28;20054;-69
2023/06/08 08:51:00;;;;;;;8.65;6.57;;;23.90;96.70;;;;;;4964927;28;20055;-68
2023/06/08 08:53:30;;;;;;;10.27;6.43;;;24.10;96.70;;;;;;4981662;28;20053;-69
2023/06/08 08:55:59;;;;;;;9.27;6.40;;;24.00;96.70;;;;;;4983172;28;20157;-68
2023/06/08 08:58:27;;;;;;;7.95;5.95;;;24.00;96.70;;;;;;4983035;28;20042;-69
2023/06/08 09:00:55;;;;;;;6.63;5.22;;;24.10;96.70;;;;;;4985968;28;20140;-69
2023/06/08 09:03:23;;;;;;;8.18;5.45;;;24.30;96.70;;;;;;4965827;28;20500;-68
2023/06/08 09:05:53;;;;;;;6.13;5.32;;;24.30;96.70;;;;;;4977811;28;20417;-68
2023/06/08 09:08:23;;;;;;;8.52;5.03;;;24.30;96.70;;;;;;4981503;28;20046;-68
2023/06/08 09:11:01;;;;;;;7.35;5.80;;;24.50;96.70;;;;;;4981423;28;20124;-68
2023/06/08 09:13:29;;;;;;;7.13;4.70;;;24.30;96.70;;;;;;4974886;28;20125;-68
2023/06/08 09:16:06;;;;;;;4.85;3.60;;;24.30;96.70;;;;;;4982538;28;20038;-68
2023/06/08 09:18:34;;;;;;;4.68;3.63;;;24.30;96.70;;;;;;4982558;28;20062;-68
2023/06/08 09:21:23;;;;;;;4.45;3.50;;;24.40;96.70;;;;;;4981457;28;20042;-68
2023/06/08 09:24:11;;;;;;;4.45;3.53;;;24.40;96.70;;;;;;4977861;28;20130;-68
2023/06/08 09:26:45;;;;;;;4.72;3.30;;;24.60;96.70;;;;;;4982277;28;20080;-68
2023/06/08 09:29:40;;;;;;;4.75;3.50;;;24.80;96.70;;;;;;4981112;28;20616;-68
2023/06/08 09:32:12;;;;;;;5.63;3.53;;;24.80;96.70;;;;;;4982796;28;20046;-68
2023/06/08 09:34:49;;;;;;;4.68;3.45;;;24.70;96.70;;;;;;4982351;28;20524;-68
2023/06/08 09:37:24;;;;;;;4.10;3.70;;;24.80;96.70;;;;;;4982192;28;20047;-68
2023/06/08 09:39:53;;;;;;;4.43;3.88;;;25.00;96.70;;;;;;4982463;28;20084;-69
2023/06/08 09:42:22;;;;;;;6.05;3.60;;;25.10;96.70;;;;;;4982574;28;20038;-69
2023/06/08 09:45:08;;;;;;;4.45;3.22;;;25.10;96.70;;;;;;4982197;28;20471;-69
2023/06/08 09:47:36;;;;;;;5.32;3.97;;;25.30;96.70;;;;;;4982293;28;20062;-69
2023/06/08 09:50:07;;;;;;;4.30;3.75;;;25.20;96.70;;;;;;4982073;28;20145;-68
2023/06/08 09:52:37;;;;;;;6.90;3.85;;;25.20;96.70;;;;;;4981090;28;20551;-68
2023/06/08 09:55:06;;;;;;;3.97;3.60;;;25.30;96.70;;;;;;4981844;28;20053;-68
2023/06/08 09:57:36;;;;;;;3.92;3.55;;;25.30;96.70;;;;;;4985862;28;20373;-69
2023/06/08 10:00:09;;;;;;;4.13;3.53;;;25.30;96.70;;;;;;4985273;28;20054;-69
2023/06/08 10:02:44;;;;;;;6.85;3.90;;;25.30;96.70;;;;;;4986450;28;20054;-68
2023/06/08 10:05:17;;;;;;;6.32;4.13;;;25.40;96.70;;;;;;4981566;28;20511;-69
2023/06/08 10:07:48;;;;;;;4.47;3.13;;;25.50;96.70;;;;;;4984478;28;20054;-69
2023/06/08 10:10:22;;;;;;;5.90;3.65;;;25.60;96.70;;;;;;4966265;28;20139;-68
2023/06/08 10:13:09;;;;;;;4.20;3.13;;;25.80;96.70;;;;;;4986052;28;20054;-68
2023/06/08 10:15:41;;;;;;;4.57;3.22;;;26.00;96.70;;;;;;4988566;28;20072;-68
2023/06/08 10:18:10;;;;;;;3.92;3.20;;;26.10;96.70;;;;;;4984541;28;20054;-68
2023/06/08 10:20:39;;;;;;;4.95;3.45;;;26.10;96.70;;;;;;4985852;28;20567;-68
2023/06/08 10:23:10;;;;;;;4.28;3.55;;;25.90;96.70;;;;;;4985724;28;20112;-69
2023/06/08 10:25:40;;;;;;;3.40;3.10;;;26.00;96.70;;;;;;4967538;28;20054;-69
2023/06/08 10:28:09;;;;;;;3.40;3.08;;;26.20;96.70;;;;;;4984278;28;20602;-68
2023/06/08 10:30:41;;;;;;;4.28;3.88;;;26.40;96.70;;;;;;4984061;28;20115;-68
2023/06/08 10:33:30;;;;;;;4.35;3.95;;;26.50;96.70;;;;;;4985839;28;20050;-68
2023/06/08 10:36:07;;;;;;;4.38;3.40;;;26.70;96.70;;;;;;4985094;28;20121;-69
2023/06/08 10:38:56;;;;;;;3.72;3.28;;;26.90;96.70;;;;;;4984350;28;20078;-69
2023/06/08 10:41:40;;;;;;;4.13;3.42;;;26.90;96.70;;;;;;4980979;28;20054;-69
2023/06/08 10:44:29;;;;;;;3.88;3.05;;;26.90;96.70;;;;;;4983145;28;20097;-68
2023/06/08 10:47:03;;;;;;;3.95;3.00;;;26.80;96.70;;;;;;4979477;28;20074;-69
2023/06/08 10:49:32;;;;;;;4.68;2.90;;;27.00;96.70;;;;;;4980389;28;20058;-69
2023/06/08 10:52:01;;;;;;;3.33;2.88;;;27.20;96.70;;;;;;4982215;28;20056;-69
2023/06/08 10:54:45;;;;;;;3.80;2.80;;;27.20;96.70;;;;;;4984572;28;20046;-69
2023/06/08 10:57:35;;;;;;;3.33;2.60;;;27.40;96.70;;;;;;4985545;28;20054;-69
2023/06/08 11:00:42;;;;;;;2.47;2.28;;;27.60;96.70;;;;;;4981515;28;20054;-69
2023/06/08 11:03:16;;;;;;;4.00;2.55;;;27.80;96.70;;;;;;4967214;28;20137;-68
2023/06/08 11:05:50;;;;;;;2.90;2.28;;;27.80;96.70;;;;;;4983736;28;20397;-70
2023/06/08 11:08:18;;;;;;;3.13;2.83;;;27.90;96.70;;;;;;4990228;28;20046;-69
2023/06/08 11:10:53;;;;;;;2.78;2.30;;;28.00;96.70;;;;;;4981742;28;20034;-69
2023/06/08 11:13:22;;;;;;;3.23;2.87;;;28.00;96.70;;;;;;4984591;28;20069;-68
2023/06/08 11:15:50;;;;;;;4.57;2.83;;;28.00;96.70;;;;;;4984585;28;20039;-68
2023/06/08 11:18:20;;;;;;;4.07;2.40;;;28.10;96.70;;;;;;4984349;28;20082;-68
2023/06/08 11:20:49;;;;;;;3.42;2.35;;;28.10;96.70;;;;;;4983267;28;20057;-68
2023/06/08 11:23:17;;;;;;;4.38;2.17;;;28.00;96.70;;;;;;4982980;28;20046;-68
2023/06/08 11:25:47;;;;;;;2.35;2.15;;;28.00;96.70;;;;;;4980407;28;20145;-69
2023/06/08 11:28:16;;;;;;;3.33;2.47;;;28.10;96.70;;;;;;4983846;28;20054;-69
2023/06/08 11:30:44;;;;;;;2.30;2.10;;;28.30;96.70;;;;;;4983158;28;20101;-68
2023/06/08 11:33:14;;;;;;;3.58;2.42;;;28.30;96.70;;;;;;4984640;28;20074;-69
2023/06/08 11:35:43;;;;;;;3.00;2.40;;;28.40;96.70;;;;;;4983277;28;20126;-70
2023/06/08 11:38:11;;;;;;;2.72;2.53;;;28.40;96.70;;;;;;4984206;28;20088;-70
2023/06/08 11:40:41;;;;;;;2.83;2.63;;;28.00;96.70;;;;;;4982516;28;20046;-69
2023/06/08 11:43:11;;;;;;;3.30;2.50;;;27.70;96.70;;;;;;4982513;28;20057;-69
2023/06/08 11:45:40;;;;;;;4.50;2.55;;;28.10;96.70;;;;;;4982759;28;20381;-69
2023/06/08 11:48:08;;;;;;;3.47;2.70;;;28.40;96.70;;;;;;4983803;28;20041;-70
2023/06/08 11:50:46;;;;;;;3.22;2.30;;;28.50;96.70;;;;;;4982149;28;20046;-69
2023/06/08 11:53:16;;;;;;;3.55;2.42;;;28.40;96.70;;;;;;4978924;28;20049;-70
2023/06/08 11:55:46;;;;;;;3.00;2.60;;;28.50;96.70;;;;;;4982314;28;20108;-70
2023/06/08 11:58:14;;;;;;;4.97;2.60;;;28.70;96.70;;;;;;4983066;28;20416;-71
2023/06/08 12:00:45;;;;;;;2.65;2.40;;;29.00;96.70;;;;;;4982228;28;20057;-69
2023/06/08 12:03:13;;;;;;;2.78;2.20;;;28.90;96.70;;;;;;4977991;28;20082;-69
2023/06/08 12:05:43;;;;;;;2.97;2.10;;;28.60;96.70;;;;;;4981304;28;20145;-69
2023/06/08 12:08:15;;;;;;;2.65;2.13;;;28.70;96.70;;;;;;4982220;28;20057;-69
2023/06/08 12:10:46;;;;;;;2.17;1.90;;;28.70;96.70;;;;;;4981690;28;20050;-69
2023/06/08 12:13:15;;;;;;;3.28;2.05;;;28.70;96.70;;;;;;4981734;28;20149;-69
2023/06/08 12:15:47;;;;;;;2.92;1.70;;;28.70;96.70;;;;;;4964730;28;20045;-69
2023/06/08 12:18:17;;;;;;;2.05;1.85;;;28.90;96.70;;;;;;4983086;28;20050;-69
2023/06/08 12:20:47;;;;;;;2.83;2.00;;;28.80;96.70;;;;;;4980854;28;20042;-69
2023/06/08 12:23:16;;;;;;;2.50;2.15;;;28.90;96.70;;;;;;4980679;28;20057;-69
2023/06/08 12:25:44;;;;;;;2.67;1.90;;;28.90;96.70;;;;;;4981546;28;20038;-70
2023/06/08 12:28:19;;;;;;;3.40;1.83;;;29.00;96.70;;;;;;4965591;28;20054;-69
2023/06/08 12:30:49;;;;;;;2.60;1.63;;;29.00;96.70;;;;;;4981793;28;20057;-69
2023/06/08 12:33:20;;;;;;;2.65;2.20;;;29.00;96.70;;;;;;4980872;28;20086;-70
2023/06/08 12:35:50;;;;;;;2.05;1.85;;;28.90;96.70;;;;;;4980307;28;20042;-70
2023/06/08 12:38:18;;;;;;;2.40;1.90;;;28.90;96.70;;;;;;4982754;28;20045;-70
2023/06/08 12:40:47;;;;;;;2.22;1.60;;;28.90;96.70;;;;;;4983240;28;20149;-70
2023/06/08 12:43:16;;;;;;;1.73;1.63;;;28.90;96.70;;;;;;4983269;28;20610;-69
2023/06/08 12:45:44;;;;;;;1.65;1.55;;;29.00;96.70;;;;;;4981583;28;20416;-69
2023/06/08 12:48:14;;;;;;;2.30;1.45;;;29.10;96.70;;;;;;4974110;28;20050;-69
2023/06/08 12:50:42;;;;;;;1.42;1.33;;;29.00;96.70;;;;;;4981845;28;20128;-69
2023/06/08 12:53:10;;;;;;;2.22;1.50;;;29.10;96.70;;;;;;4981938;28;20042;-69
2023/06/08 12:55:38;;;;;;;2.22;1.60;;;29.20;96.70;;;;;;4983177;28;20054;-68
2023/06/08 12:58:06;;;;;;;1.70;1.60;;;29.40;96.70;;;;;;4982242;28;20040;-70
2023/06/08 13:00:34;;;;;;;1.55;1.45;;;29.40;96.70;;;;;;4980360;28;20156;-69
2023/06/08 13:03:03;;;;;;;2.30;1.60;;;29.40;96.70;;;;;;4982303;28;20046;-69